Welcome to Northern Hawkes Bay. New Zealand.
PWS Header
      nz Flag



Hit Counter


W3C Valid W3C Valid logo


    Wairoa

Select any of the Stations below to visit their websites.










Historic Data from Weather Underground
Select the location of interest below. Wairoa is the default. Please have patience, this Data is slow to load in.
Northern Hawkes Bay Historical Data
Daily Summary for February 10, 2017 Units:  English    Metric   Both
« Previous Day
Next Day »
Daily Weekly Monthly Yearly Custom
  High: Low: Average:
Temperature: 70.2 °F 49.1 °F 59.5 °F
Dew Point: 54 °F 48.7 °F 51.4 °F
Humidity: 99% 49% 76%
Wind Speed: 9.2mph 0mph 3.6mph
Wind Gust: 15.9mph - -
Wind- - SSW
Pressure: 30.1 in 29.8 in -
Precipitation: 0 in    
Historical Graphs
 
 
Tabular Data for February 10, 2017
Time Temperature Dew Point Pressure Wind Wind Speed Wind Gust Humidity Rainfall Rate (Hourly) solar
00:04 54.9 °F 51.4 °F 30.1 in North 1.6 mph 3.8 mph 88% 0 in 0 W/m2
00:09 54.7 °F 51.3 °F 30.1 in NNW 2.2 mph 4.5 mph 88% 0 in 0 W/m2
00:14 54.7 °F 51.3 °F 30.1 in NNW 0.7 mph 4.5 mph 88% 0 in 0 W/m2
00:19 54.3 °F 50.7 °F 30.1 in Calm   4.5 mph 88% 0 in 0 W/m2
00:24 54.1 °F 51.1 °F 30.1 in North 1.6 mph 3.1 mph 89% 0 in 0 W/m2
00:29 54.1 °F 51.3 °F 30.1 in NNW 3.1 mph 3.8 mph 90% 0 in 0 W/m2
00:34 54.1 °F 51.3 °F 30.1 in NNW 2.2 mph 3.8 mph 90% 0 in 0 W/m2
00:39 54 °F 51.4 °F 30.1 in NNW 1.6 mph 4.5 mph 91% 0 in 0 W/m2
00:44 53.8 °F 51.3 °F 30.1 in NNW 0.7 mph 4.5 mph 91% 0 in 0 W/m2
00:49 53.8 °F 51.4 °F 30.1 in NNW 2.2 mph 4.5 mph 92% 0 in 0 W/m2
00:54 53.8 °F 51.4 °F 30.1 in NNW 2.2 mph 4.5 mph 92% 0 in 0 W/m2
00:59 53.8 °F 51.4 °F 30.1 in NNW 3.8 mph 6 mph 92% 0 in 0 W/m2
01:04 53.8 °F 51.4 °F 30.1 in NNW 3.8 mph 6 mph 92% 0 in 0 W/m2
01:09 53.6 °F 51.6 °F 30.1 in NNW 2.2 mph 7.6 mph 93% 0 in 0 W/m2
01:14 53.6 °F 51.6 °F 30.1 in North 1.6 mph 7.6 mph 93% 0 in 0 W/m2
01:19 53.4 °F 51.6 °F 30.1 in North 2.2 mph 5.4 mph 94% 0 in 0 W/m2
01:24 53.4 °F 51.6 °F 30.1 in North 2.2 mph 4.5 mph 94% 0 in 0 W/m2
01:29 53.4 °F 51.6 °F 30.1 in NNW 2.2 mph 5.4 mph 94% 0 in 0 W/m2
01:34 53.2 °F 51.6 °F 30.1 in NNW 1.6 mph 5.4 mph 94% 0 in 0 W/m2
01:39 53.2 °F 52 °F 30.1 in North 1.6 mph 6 mph 95% 0 in 0 W/m2
01:44 53.2 °F 52 °F 30.1 in North 3.8 mph 6 mph 95% 0 in 0 W/m2
01:49 53.2 °F 52 °F 30.1 in North 1.6 mph 5.4 mph 95% 0 in 0 W/m2
01:54 53.1 °F 51.6 °F 30.1 in North 1.6 mph 5.4 mph 95% 0 in 0 W/m2
01:59 53.1 °F 51.6 °F 30.1 in North 3.1 mph 6 mph 95% 0 in 0 W/m2
02:04 52.9 °F 51.4 °F 30.1 in North 3.1 mph 6.9 mph 95% 0 in 0 W/m2
02:09 52.5 °F 51.1 °F 30.1 in NNW 3.8 mph 6.9 mph 95% 0 in 0 W/m2
02:14 52.3 °F 51.1 °F 30.1 in North 3.1 mph 6 mph 95% 0 in 0 W/m2
02:19 52.3 °F 51.3 °F 30.1 in North 1.6 mph 4.5 mph 96% 0 in 0 W/m2
02:24 52.2 °F 51.1 °F 30 in North 1.6 mph 4.5 mph 96% 0 in 0 W/m2
02:30 52 °F 50.9 °F 30.1 in North 1.6 mph 4.5 mph 96% 0 in 0 W/m2
02:35 51.8 °F 50.7 °F 30.1 in NNW 3.8 mph 6 mph 96% 0 in 0 W/m2
02:40 51.6 °F 51.1 °F 30 in NNW 3.1 mph 6 mph 98% 0 in 0 W/m2
02:45 51.4 °F 50.9 °F 30 in NNW 2.2 mph 6 mph 98% 0 in 0 W/m2
02:50 51.4 °F 50.9 °F 30 in North 3.8 mph 7.6 mph 98% 0 in 0 W/m2
02:55 51.4 °F 50.9 °F 30 in NNW 4.5 mph 7.6 mph 98% 0 in 0 W/m2
03:00 51.3 °F 50.7 °F 30 in NNW 2.2 mph 6 mph 98% 0 in 0 W/m2
03:05 51.3 °F 51.1 °F 30 in North 2.2 mph 6 mph 99% 0 in 0 W/m2
03:10 51.1 °F 50.7 °F 30 in North 1.6 mph 6 mph 99% 0 in 0 W/m2
03:15 51.1 °F 50.7 °F 30 in NNW 3.1 mph 6 mph 99% 0 in 0 W/m2
03:20 51.1 °F 50.7 °F 30 in NNW 3.1 mph 5.4 mph 99% 0 in 0 W/m2
03:25 51.1 °F 50.7 °F 30 in NNW 3.8 mph 5.4 mph 99% 0 in 0 W/m2
03:30 51.1 °F 50.7 °F 30 in NNW 1.6 mph 5.4 mph 99% 0 in 0 W/m2
03:35 51.1 °F 50.7 °F 30 in NNW 3.1 mph 5.4 mph 99% 0 in 0 W/m2
03:40 51.1 °F 50.7 °F 30 in NNW 3.1 mph 5.4 mph 99% 0 in 0 W/m2
03:45 51.3 °F 51.1 °F 30 in NNW 2.2 mph 6 mph 99% 0 in 0 W/m2
03:50 51.3 °F 51.1 °F 30 in NNW 3.1 mph 6 mph 99% 0 in 0 W/m2
03:55 51.3 °F 51.1 °F 30 in NNW 2.2 mph 6 mph 99% 0 in 0 W/m2
04:00 51.1 °F 50.7 °F 30 in NNW 3.1 mph 4.5 mph 99% 0 in 0 W/m2
04:05 51.1 °F 50.7 °F 30 in NNW 3.1 mph 5.4 mph 99% 0 in 0 W/m2
04:10 50.9 °F 50.5 °F 30 in NW 2.2 mph 5.4 mph 99% 0 in 0 W/m2
04:15 50.7 °F 50.5 °F 30 in NNW 2.2 mph 5.4 mph 99% 0 in 0 W/m2
04:20 50.5 °F 50.4 °F 30 in NW 2.2 mph 4.5 mph 99% 0 in 0 W/m2
04:25 50.4 °F 49.8 °F 30 in NNW 3.8 mph 5.4 mph 98% 0 in 0 W/m2
04:30 50.2 °F 49.6 °F 30 in NNW 3.8 mph 5.4 mph 98% 0 in 0 W/m2
04:35 50.2 °F 49.8 °F 30 in NNW 4.5 mph 6 mph 99% 0 in 0 W/m2
04:40 50.2 °F 49.8 °F 30 in NNW 4.5 mph 6.9 mph 99% 0 in 0 W/m2
04:45 50.2 °F 49.8 °F 30 in NNW 3.8 mph 6.9 mph 99% 0 in 0 W/m2
04:50 50.2 °F 49.8 °F 30 in NNW 3.8 mph 6 mph 99% 0 in 0 W/m2
04:55 50.2 °F 49.8 °F 30 in NNW 2.2 mph 6 mph 99% 0 in 0 W/m2
05:00 50.2 °F 49.8 °F 30 in NNW 3.8 mph 6 mph 99% 0 in 0 W/m2
05:05 50.2 °F 49.8 °F 30 in NNW 3.1 mph 6 mph 99% 0 in 0 W/m2
05:10 50.2 °F 49.8 °F 30 in NNW 3.1 mph 5.4 mph 99% 0 in 0 W/m2
05:15 50.4 °F 50.2 °F 30 in NNW 3.8 mph 6.9 mph 99% 0 in 0 W/m2
05:20 50.4 °F 50.2 °F 30 in NNW 2.2 mph 6.9 mph 99% 0 in 0 W/m2
05:25 50.5 °F 50.4 °F 30 in NNW 1.6 mph 4.5 mph 99% 0 in 0 W/m2
05:30 50.5 °F 50.4 °F 30 in NNW 1.6 mph 3.8 mph 99% 0 in 0 W/m2
05:35 50.5 °F 50.4 °F 30 in NNW 3.1 mph 4.5 mph 99% 0 in 0 W/m2
05:40 50.5 °F 50.4 °F 30 in NNW 4.5 mph 6 mph 99% 0 in 0 W/m2
05:45 50.5 °F 50.4 °F 30 in NW 1.6 mph 6 mph 99% 0 in 0 W/m2
05:50 50.4 °F 50.2 °F 30 in NW 4.5 mph 6 mph 99% 0 in 0 W/m2
05:55 50.2 °F 49.8 °F 30 in NW 4.5 mph 8.3 mph 99% 0 in 0 W/m2
06:00 49.8 °F 49.6 °F 30 in NW 3.1 mph 8.3 mph 99% 0 in 0 W/m2
06:05 49.6 °F 49.5 °F 30 in NNW 3.8 mph 6.9 mph 99% 0 in 0 W/m2
06:07 49.6 °F 49.5 °F 30 in NNW 4.5 mph 6.9 mph 99% 0 in 0 W/m2
06:12 49.5 °F 49.3 °F 30 in NNW 3.8 mph 6.9 mph 99% 0 in 0 W/m2
06:17 49.3 °F 48.9 °F 30 in NW 4.5 mph 6.9 mph 99% 0 in 0 W/m2
06:22 49.1 °F 48.7 °F 30 in NNW 4.5 mph 7.6 mph 99% 0 in 0 W/m2
06:27 49.1 °F 48.7 °F 30 in NNW 5.4 mph 7.6 mph 99% 0 in 0 W/m2
06:32 49.1 °F 48.7 °F 30 in NNW 5.4 mph 8.3 mph 99% 0 in 1 W/m2
06:37 49.1 °F 48.7 °F 30 in NNW 3.1 mph 9.2 mph 99% 0 in 3 W/m2
06:42 49.3 °F 48.9 °F 30 in NNW 3.1 mph 9.2 mph 99% 0 in 5 W/m2
06:47 49.3 °F 48.9 °F 30 in NW 3.1 mph 6.9 mph 99% 0 in 10 W/m2
06:52 49.5 °F 49.3 °F 30 in NNW 3.8 mph 6.9 mph 99% 0 in 14 W/m2
06:57 49.5 °F 49.3 °F 30 in North 3.8 mph 6 mph 99% 0 in 20 W/m2
07:02 49.5 °F 49.3 °F 30 in NNW 2.2 mph 6 mph 99% 0 in 25 W/m2
07:07 49.5 °F 49.3 °F 30 in NNW 3.1 mph 6.9 mph 99% 0 in 31 W/m2
07:12 49.6 °F 49.5 °F 30 in NNW 3.1 mph 6.9 mph 99% 0 in 40 W/m2
07:17 50.2 °F 49.8 °F 30 in NNW 3.1 mph 6.9 mph 99% 0 in 85 W/m2
07:22 50.7 °F 50.5 °F 30 in NNW 3.8 mph 9.2 mph 99% 0 in 101 W/m2
07:27 51.1 °F 50.7 °F 30 in NNW 6 mph 9.2 mph 99% 0 in 66 W/m2
07:32 51.1 °F 50.7 °F 30 in North 3.8 mph 8.3 mph 99% 0 in 109 W/m2
07:37 51.6 °F 50.7 °F 30 in NNW 5.4 mph 8.3 mph 97% 0 in 109 W/m2
07:42 52.3 °F 51.1 °F 30 in NNW 5.4 mph 8.3 mph 95% 0 in 115 W/m2
07:47 52.5 °F 50.4 °F 30 in NNW 5.4 mph 8.3 mph 92% 0 in 123 W/m2
07:52 52.7 °F 50.2 °F 30 in NNW 3.1 mph 8.3 mph 91% 0 in 135 W/m2
07:57 53.1 °F 50.2 °F 30 in NNW 4.5 mph 8.3 mph 90% 0 in 145 W/m2
08:02 53.2 °F 50.2 °F 30 in NNW 3.1 mph 7.6 mph 89% 0 in 163 W/m2
08:07 54 °F 50.2 °F 30 in NNW 4.5 mph 8.3 mph 87% 0 in 166 W/m2
08:12 54.1 °F 49.6 °F 30 in North 3.1 mph 9.8 mph 85% 0 in 186 W/m2
08:28 54.9 °F 50.2 °F 30 in NNW 4.5 mph 10.7 mph 84% 0 in 227 W/m2
08:33 55.4 °F 50.7 °F 30 in North 5.4 mph 10.7 mph 84% 0.01 in 168 W/m2
08:38 55.6 °F 50.7 °F 30 in North 4.5 mph 9.2 mph 84% 0.01 in 257 W/m2
08:43 55.4 °F 50 °F 30 in NNE 3.1 mph 9.2 mph 82% 0.01 in 131 W/m2
08:48 55.4 °F 50.4 °F 30 in North 3.1 mph 7.6 mph 83% 0.01 in 282 W/m2
08:53 56.3 °F 51.3 °F 30 in North 3.1 mph 7.6 mph 83% 0.01 in 296 W/m2
08:58 57.2 °F 51.1 °F 30 in NNW 4.5 mph 7.6 mph 80% 0.01 in 304 W/m2
09:03 57.2 °F 50.7 °F 30 in NW 4.5 mph 7.6 mph 79% 0.01 in 313 W/m2
09:08 58.1 °F 51.6 °F 30 in NW 3.8 mph 7.6 mph 79% 0.01 in 329 W/m2
09:12 58.6 °F 51.8 °F 30 in North 4.5 mph 7.6 mph 78% 0.01 in 341 W/m2
09:17 58.6 °F 51.4 °F 30 in North 4.5 mph 7.6 mph 77% 0.01 in 355 W/m2
09:22 59 °F 51.4 °F 30 in NNW 2.2 mph 7.6 mph 76% 0.01 in 370 W/m2
09:27 59.9 °F 52 °F 30 in NNW 4.5 mph 6.9 mph 75% 0.01 in 387 W/m2
09:32 59.9 °F 51.6 °F 30 in NNW 4.5 mph 6.9 mph 74% 0 in 404 W/m2
09:37 60.3 °F 52 °F 30 in North 3.1 mph 6.9 mph 74% 0 in 425 W/m2
09:42 60.6 °F 52 °F 30 in NNW 1.6 mph 6.9 mph 73% 0 in 456 W/m2
09:47 61.3 °F 52.3 °F 30 in NW 3.8 mph 6.9 mph 72% 0 in 502 W/m2
09:52 61.2 °F 52.2 °F 30 in Calm   6.9 mph 72% 0 in 339 W/m2
09:57 63.1 °F 53.6 °F 30 in Calm   6 mph 71% 0 in 440 W/m2
10:02 64.8 °F 53.6 °F 30 in NNW 3.1 mph 5.4 mph 67% 0 in 526 W/m2
10:07 64.9 °F 53.2 °F 30 in NW 3.1 mph 6.9 mph 66% 0 in 559 W/m2
10:12 65.1 °F 54 °F 30 in Calm   6.9 mph 67% 0 in 335 W/m2
10:17 64.9 °F 52.5 °F 30 in SSW 5.4 mph 9.2 mph 64% 0 in 419 W/m2
10:22 63.7 °F 51.3 °F 30 in SSW 6.9 mph 9.8 mph 64% 0 in 679 W/m2
10:27 63.5 °F 52 °F 30 in SW 8.3 mph 10.7 mph 66% 0 in 718 W/m2
10:32 64.2 °F 52.5 °F 30 in SW 5.4 mph 10.7 mph 66% 0 in 498 W/m2
10:37 64.2 °F 52.2 °F 30 in SSW 4.5 mph 10.7 mph 65% 0 in 513 W/m2
10:42 63.7 °F 51.3 °F 30 in SW 6 mph 9.8 mph 64% 0 in 513 W/m2
10:47 63.1 °F 51.3 °F 30 in WSW 3.1 mph 9.8 mph 65% 0 in 588 W/m2
10:52 63.9 °F 52 °F 30 in SW 6.9 mph 9.8 mph 65% 0 in 618 W/m2
10:57 64.6 °F 52.2 °F 30 in SW 6 mph 9.8 mph 64% 0 in 744 W/m2
11:02 64.9 °F 52.5 °F 30 in SSW 3.8 mph 9.8 mph 64% 0 in 420 W/m2
11:07 63.7 °F 51.6 °F 30 in SW 5.4 mph 9.8 mph 65% 0 in 657 W/m2
11:12 64.2 °F 51.8 °F 30 in SW 6.9 mph 10.7 mph 64% 0 in 899 W/m2
11:17 64.8 °F 52.7 °F 30 in SSW 6.9 mph 10.7 mph 65% 0 in 880 W/m2
11:22 64.8 °F 52.7 °F 30 in SSW 4.5 mph 9.8 mph 65% 0 in 836 W/m2
11:27 65.5 °F 52.2 °F 30 in SSW 6 mph 11.4 mph 62% 0 in 846 W/m2
11:32 65.1 °F 51.4 °F 30 in SSW 3.8 mph 11.4 mph 61% 0 in 857 W/m2
11:37 64.8 °F 52.7 °F 29.9 in SW 4.5 mph 13 mph 65% 0 in 871 W/m2
11:42 64.6 °F 52.2 °F 29.9 in SSW 6.9 mph 13 mph 64% 0 in 883 W/m2
11:47 64.2 °F 51.8 °F 29.9 in SSW 9.2 mph 11.4 mph 64% 0 in 888 W/m2
11:55 63.7 °F 51.6 °F 29.9 in South 6.9 mph 12.1 mph 65% 0 in 898 W/m2
12:01 64.6 °F 53.1 °F 29.9 in SSW 7.6 mph 11.4 mph 66% 0 in 911 W/m2
12:07 64.6 °F 52.5 °F 29.9 in SSW 6 mph 12.1 mph 65% 0 in 918 W/m2
12:12 65.1 °F 52.2 °F 29.9 in SSW 7.6 mph 12.1 mph 63% 0 in 925 W/m2
12:17 64.8 °F 52 °F 29.9 in South 5.4 mph 10.7 mph 63% 0 in 905 W/m2
12:22 64.9 °F 51.6 °F 29.9 in South 6.9 mph 12.1 mph 62% 0 in 930 W/m2
12:27 64.8 °F 50.5 °F 29.9 in SSW 5.4 mph 12.1 mph 60% 0 in 932 W/m2
12:32 65.5 °F 51.3 °F 29.9 in South 5.4 mph 10.7 mph 60% 0 in 937 W/m2
12:39 66.2 °F 51.1 °F 29.9 in SSW 5.4 mph 12.1 mph 58% 0 in 943 W/m2
12:44 65.5 °F 51.6 °F 29.9 in SSW 9.2 mph 11.4 mph 61% 0 in 943 W/m2
12:49 65.3 °F 51.4 °F 29.9 in SSW 6 mph 11.4 mph 61% 0 in 943 W/m2
12:55 64.9 °F 51.3 °F 29.9 in SSW 5.4 mph 12.1 mph 61% 0 in 941 W/m2
13:00 65.8 °F 51.6 °F 29.9 in South 6 mph 12.1 mph 60% 0 in 946 W/m2
13:05 66 °F 52.2 °F 29.9 in South 5.4 mph 11.4 mph 61% 0 in 943 W/m2
13:14 65.3 °F 52.9 °F 29.9 in South 8.3 mph 12.1 mph 64% 0 in 932 W/m2
13:19 65.5 °F 50.7 °F 29.9 in South 7.6 mph 12.1 mph 59% 0 in 944 W/m2
13:24 65.7 °F 51.4 °F 29.9 in SSW 9.2 mph 13 mph 60% 0 in 692 W/m2
13:30 65.3 °F 51.1 °F 29.9 in South 6.9 mph 13 mph 60% 0 in 918 W/m2
13:35 66 °F 50.4 °F 29.9 in South 6.9 mph 12.1 mph 57% 0 in 913 W/m2
13:40 66.4 °F 50.2 °F 29.9 in SSW 7.6 mph 12.1 mph 56% 0 in 911 W/m2
13:45 65.8 °F 52 °F 29.9 in SSW 5.4 mph 11.4 mph 61% 0 in 903 W/m2
13:48 66.2 °F 51.4 °F 29.9 in South 6.9 mph 11.4 mph 59% 0 in 900 W/m2
13:53 65.7 °F 50.5 °F 29.9 in SSW 7.6 mph 11.4 mph 58% 0 in 891 W/m2
13:59 65.7 °F 50.5 °F 29.9 in South 6.9 mph 12.1 mph 58% 0 in 878 W/m2
14:04 66.2 °F 49.6 °F 29.9 in South 6 mph 12.1 mph 55% 0 in 875 W/m2
14:09 65.5 °F 49.5 °F 29.9 in South 6.9 mph 10.7 mph 56% 0 in 866 W/m2
14:15 66.4 °F 50.2 °F 29.9 in South 4.5 mph 11.4 mph 56% 0 in 859 W/m2
14:20 66.4 °F 49.6 °F 29.9 in SSE 5.4 mph 11.4 mph 55% 0 in 847 W/m2
14:25 66.9 °F 49.8 °F 29.9 in SSE 6.9 mph 10.7 mph 54% 0 in 843 W/m2
14:35 66 °F 50.7 °F 29.9 in South 8.3 mph 11.4 mph 58% 0 in 818 W/m2
14:41 66.9 °F 50.7 °F 29.9 in SSE 4.5 mph 11.4 mph 56% 0 in 791 W/m2
14:46 67.1 °F 50.9 °F 29.9 in SSE 4.5 mph 9.2 mph 56% 0 in 798 W/m2
14:51 67.5 °F 51.3 °F 29.9 in SE 5.4 mph 13.6 mph 56% 0 in 779 W/m2
14:56 67.1 °F 52 °F 29.9 in ESE 7.6 mph 13.6 mph 58% 0 in 764 W/m2
15:01 67.3 °F 51.4 °F 29.9 in SE 3.1 mph 10.7 mph 57% 0 in 416 W/m2
15:06 68 °F 51.6 °F 29.9 in SE 3.8 mph 10.7 mph 56% 0 in 744 W/m2
15:08 68.2 °F 52 °F 29.9 in SE 3.1 mph 10.7 mph 56% 0 in 743 W/m2
15:12 68.5 °F 52.2 °F 29.9 in SSE 4.5 mph 10.7 mph 56% 0 in 717 W/m2
15:17 68.5 °F 52.2 °F 29.9 in SE 3.8 mph 9.8 mph 56% 0 in 99 W/m2
15:22 68 °F 51.6 °F 29.9 in SE 4.5 mph 15.9 mph 56% 0 in 539 W/m2
15:27 68.4 °F 52.5 °F 29.9 in SE 4.5 mph 15.9 mph 57% 0 in 617 W/m2
15:32 68.7 °F 52.3 °F 29.8 in SE 6 mph 11.4 mph 56% 0 in 625 W/m2
15:37 68.4 °F 52.5 °F 29.8 in SE 3.8 mph 12.1 mph 57% 0 in 666 W/m2
15:39 68.4 °F 52.5 °F 29.8 in SE 3.8 mph 12.1 mph 57% 0 in 675 W/m2
15:42 68.7 °F 53.4 °F 29.8 in SSE 5.4 mph 12.1 mph 58% 0 in 668 W/m2
15:47 69.1 °F 52.3 °F 29.8 in SSE 3.1 mph 10.7 mph 55% 0 in 644 W/m2
15:52 69.3 °F 52 °F 29.8 in SE 5.4 mph 10.7 mph 54% 0 in 447 W/m2
15:57 69.4 °F 52.5 °F 29.8 in SE 3.1 mph 9.8 mph 55% 0 in 387 W/m2
16:02 70.2 °F 52.9 °F 29.8 in ESE 3.8 mph 9.8 mph 54% 0 in 400 W/m2
16:07 69.6 °F 52.9 °F 29.8 in SSE 3.8 mph 9.8 mph 55% 0 in 395 W/m2
16:12 69.4 °F 51.6 °F 29.8 in SE 4.5 mph 10.7 mph 53% 0 in 616 W/m2
16:17 69.8 °F 52.9 °F 29.8 in SE 5.4 mph 10.7 mph 55% 0 in 259 W/m2
16:22 70 °F 53.1 °F 29.8 in SSE 5.4 mph 12.1 mph 55% 0 in 503 W/m2
16:27 69.8 °F 52.9 °F 29.8 in SE 3.1 mph 12.1 mph 55% 0 in 323 W/m2
16:32 69.4 °F 53.1 °F 29.8 in SE 3.8 mph 11.4 mph 56% 0 in 410 W/m2
16:37 68.5 °F 51.8 °F 29.8 in SE 5.4 mph 10.7 mph 55% 0 in 402 W/m2
16:42 68.4 °F 52.5 °F 29.8 in SE 6 mph 10.7 mph 57% 0 in 352 W/m2
16:47 67.6 °F 52.3 °F 29.8 in SE 6 mph 10.7 mph 58% 0 in 290 W/m2
16:52 67.1 °F 51.4 °F 29.8 in SSE 6 mph 10.7 mph 57% 0 in 219 W/m2
16:57 66.6 °F 50.4 °F 29.8 in SE 4.5 mph 10.7 mph 56% 0 in 258 W/m2
17:02 66.7 °F 50.5 °F 29.8 in ESE 6 mph 10.7 mph 56% 0 in 521 W/m2
17:07 67.6 °F 50.4 °F 29.8 in ESE 4.5 mph 13 mph 54% 0 in 253 W/m2
17:12 67.6 °F 50.4 °F 29.8 in ESE 4.5 mph 13 mph 54% 0 in 383 W/m2
17:17 69.3 °F 49.3 °F 29.8 in ESE 7.6 mph 12.1 mph 49% 0 in 375 W/m2
17:22 68.7 °F 49.5 °F 29.8 in SE 3.1 mph 10.7 mph 50% 0 in 325 W/m2
17:27 68.7 °F 48.7 °F 29.8 in SE 6 mph 9.8 mph 49% 0 in 289 W/m2
17:32 67.8 °F 50.5 °F 29.8 in ESE 2.2 mph 9.8 mph 54% 0 in 291 W/m2
17:37 67.6 °F 50.4 °F 29.8 in ESE 3.8 mph 9.8 mph 54% 0 in 260 W/m2
17:42 66.6 °F 49.8 °F 29.8 in SSE 7.6 mph 12.1 mph 55% 0 in 194 W/m2
17:47 65.7 °F 50.5 °F 29.8 in SSE 5.4 mph 12.1 mph 58% 0 in 163 W/m2
17:52 65.5 °F 50.4 °F 29.8 in SSE 4.5 mph 9.2 mph 58% 0 in 162 W/m2
17:57 65.1 °F 50.5 °F 29.8 in SSE 3.8 mph 9.8 mph 59% 0 in 132 W/m2
18:02 64.9 °F 51.6 °F 29.8 in SSE 3.8 mph 10.7 mph 62% 0 in 118 W/m2
18:07 64.6 °F 51.6 °F 29.8 in SE 6.9 mph 10.7 mph 63% 0 in 88 W/m2
18:12 64.4 °F 51.1 °F 29.8 in SE 5.4 mph 9.2 mph 62% 0 in 68 W/m2
18:17 64.2 °F 50.9 °F 29.8 in SE 4.5 mph 9.2 mph 62% 0 in 88 W/m2
18:22 64 °F 50.7 °F 29.8 in SE 3.8 mph 8.3 mph 62% 0 in 83 W/m2
18:27 64 °F 51.3 °F 29.8 in SE 0.7 mph 8.3 mph 63% 0 in 75 W/m2
18:32 64.2 °F 51.4 °F 29.8 in SE 0.7 mph 8.3 mph 63% 0 in 81 W/m2
18:37 64.2 °F 51.8 °F 29.8 in ESE 1.6 mph 7.6 mph 64% 0 in 78 W/m2
18:42 64.2 °F 51.8 °F 29.8 in ESE 3.1 mph 7.6 mph 64% 0 in 87 W/m2
18:47 64.2 °F 51.8 °F 29.8 in ESE 3.1 mph 7.6 mph 64% 0 in 90 W/m2
18:52 64.2 °F 51.8 °F 29.8 in ESE 3.8 mph 6.9 mph 64% 0 in 74 W/m2
18:57 64.4 °F 52.3 °F 29.8 in Calm   6 mph 65% 0 in 87 W/m2
19:02 64.6 °F 53.1 °F 29.8 in SE 0.7 mph 6.9 mph 66% 0 in 76 W/m2
19:07 64.6 °F 53.1 °F 29.8 in SE 2.2 mph 9.8 mph 66% 0 in 67 W/m2
19:12 64.4 °F 53.2 °F 29.8 in SE 5.4 mph 9.8 mph 67% 0 in 48 W/m2
19:17 64 °F 52.2 °F 29.8 in SE 3.1 mph 7.6 mph 65% 0 in 37 W/m2
19:22 63.5 °F 52 °F 29.8 in ESE 5.4 mph 7.6 mph 66% 0 in 36 W/m2
19:27 63.5 °F 51.4 °F 29.8 in ESE 6 mph 7.6 mph 65% 0 in 33 W/m2
19:32 63.1 °F 51.3 °F 29.8 in ESE 3.8 mph 10.7 mph 65% 0 in 28 W/m2
19:37 63.1 °F 51.3 °F 29.8 in ESE 5.4 mph 10.7 mph 65% 0 in 29 W/m2
19:42 63 °F 51.4 °F 29.8 in ESE 5.4 mph 7.6 mph 66% 0 in 29 W/m2
19:47 63 °F 51.1 °F 29.8 in ESE 2.2 mph 7.6 mph 65% 0 in 24 W/m2
19:52 63 °F 51.4 °F 29.8 in Calm   7.6 mph 66% 0 in 19 W/m2
19:57 62.8 °F 51.3 °F 29.8 in East 3.1 mph 6.9 mph 66% 0 in 13 W/m2
20:02 62.6 °F 51.1 °F 29.8 in Calm   5.4 mph 66% 0 in 6 W/m2
20:07 62.6 °F 50.7 °F 29.8 in East 4.5 mph 6 mph 65% 0 in 4 W/m2
20:12 62.4 °F 51.3 °F 29.8 in East 3.8 mph 6 mph 67% 0 in 2 W/m2
20:17 62.2 °F 51.6 °F 29.8 in East 3.1 mph 5.4 mph 68% 0 in 0 W/m2
20:22 62.2 °F 52 °F 29.8 in Calm   4.5 mph 69% 0 in 0 W/m2
20:27 62.1 °F 51.8 °F 29.8 in ESE 3.1 mph 5.4 mph 69% 0 in 0 W/m2
20:32 62.1 °F 51.8 °F 29.8 in East 3.1 mph 5.4 mph 69% 0 in 0 W/m2
20:37 61.9 °F 51.6 °F 29.8 in East 0.7 mph 4.5 mph 69% 0 in 0 W/m2
20:42 61.9 °F 52 °F 29.8 in East 3.8 mph 5.4 mph 70% 0 in 0 W/m2
20:47 61.9 °F 52.3 °F 29.8 in ESE 4.5 mph 6 mph 71% 0 in 0 W/m2
20:52 61.7 °F 52.2 °F 29.8 in ESE 1.6 mph 6 mph 71% 0 in 0 W/m2
20:57 61.7 °F 52.2 °F 29.8 in Calm   6 mph 71% 0 in 0 W/m2
21:02 61.7 °F 52.5 °F 29.8 in ESE 1.6 mph 5.4 mph 72% 0 in 0 W/m2
21:07 61.5 °F 52.3 °F 29.8 in East 2.2 mph 5.4 mph 72% 0 in 0 W/m2
21:12 61.5 °F 52.3 °F 29.8 in East 1.6 mph 5.4 mph 72% 0 in 0 W/m2
21:17 61.3 °F 52.3 °F 29.8 in ENE 3.8 mph 6.9 mph 72% 0 in 0 W/m2
21:22 61.3 °F 52.3 °F 29.8 in East 2.2 mph 6.9 mph 72% 0 in 0 W/m2
21:27 61.3 °F 52.5 °F 29.8 in East 1.6 mph 6.9 mph 73% 0 in 0 W/m2
21:32 61.2 °F 52.5 °F 29.8 in East 1.6 mph 6.9 mph 73% 0 in 0 W/m2
21:37 61.2 °F 52.5 °F 29.8 in ESE 2.2 mph 6.9 mph 73% 0 in 0 W/m2
21:42 61.2 °F 52.5 °F 29.8 in ENE 2.2 mph 6.9 mph 73% 0 in 0 W/m2
21:47 61 °F 52.5 °F 29.8 in Calm   3.8 mph 74% 0 in 0 W/m2
21:52 60.8 °F 52.5 °F 29.8 in Calm   3.8 mph 74% 0 in 0 W/m2
21:57 60.4 °F 52.9 °F 29.8 in NNE 0.7 mph 2.2 mph 76% 0 in 0 W/m2
22:02 60.4 °F 52.9 °F 29.8 in NE 2.2 mph 4.5 mph 76% 0 in 0 W/m2
22:07 60.3 °F 53.1 °F 29.8 in NE 3.1 mph 4.5 mph 77% 0 in 0 W/m2
22:12 60.1 °F 53.2 °F 29.8 in Calm   3.8 mph 78% 0 in 0 W/m2
22:17 60.1 °F 53.2 °F 29.8 in NE 0.7 mph 3.8 mph 78% 0 in 0 W/m2
22:22 59.9 °F 53.1 °F 29.8 in Calm   2.2 mph 78% 0 in 0 W/m2
22:27 59.7 °F 52.9 °F 29.8 in Calm   2.2 mph 78% 0 in 0 W/m2
22:32 59.7 °F 52.9 °F 29.8 in Calm   1.6 mph 78% 0 in 0 W/m2
22:37 59.7 °F 53.2 °F 29.8 in Calm     79% 0 in 0 W/m2
22:42 59.5 °F 53.1 °F 29.8 in NE 0.7 mph 2.2 mph 79% 0 in 0 W/m2
22:47 59.5 °F 53.4 °F 29.8 in Calm   2.2 mph 80% 0 in 0 W/m2
22:52 59.5 °F 53.4 °F 29.8 in NNE 0.7 mph 1.6 mph 80% 0 in 0 W/m2
22:57 59.5 °F 53.8 °F 29.8 in NE 1.6 mph 3.1 mph 81% 0 in 0 W/m2
23:02 59.5 °F 53.8 °F 29.8 in NE 0.7 mph 3.1 mph 81% 0 in 0 W/m2
23:07 59.5 °F 53.8 °F 29.8 in North 2.2 mph 3.8 mph 81% 0 in 0 W/m2
23:12 59.7 °F 53.6 °F 29.8 in North 0.7 mph 3.8 mph 80% 0 in 0 W/m2
23:17 59.7 °F 53.6 °F 29.8 in North 0.7 mph 3.8 mph 80% 0 in 0 W/m2
23:22 59.7 °F 53.6 °F 29.8 in Calm   3.8 mph 80% 0 in 0 W/m2
23:27 59.5 °F 53.1 °F 29.8 in NNE 1.6 mph 2.2 mph 79% 0 in 0 W/m2
23:32 59.5 °F 53.1 °F 29.8 in Calm   2.2 mph 79% 0 in 0 W/m2
23:37 59.5 °F 53.4 °F 29.8 in NE 3.1 mph 3.8 mph 80% 0 in 0 W/m2
23:42 59.5 °F 53.1 °F 29.8 in NE 0.7 mph 3.8 mph 79% 0 in 0 W/m2
23:47 59.5 °F 53.1 °F 29.8 in NE 1.6 mph 3.8 mph 79% 0 in 0 W/m2
23:52 59.7 °F 53.2 °F 29.8 in NNE 1.6 mph 3.8 mph 79% 0 in 0 W/m2
23:57 59.7 °F 52.9 °F 29.8 in NNE 0.7 mph 3.8 mph 78% 0 in 0 W/m2
Northern Hawkes Bay. New Zealand Historic Data
Compliments of Weather Underground - 2.25 mb